sensor_id;sensor_type;location;lat;lon;timestamp;P1;durP1;ratioP1;P2;durP2;ratioP2
51852;SDS011;37894;53.172;6.598;2024-01-30T00:02:11;26.27;;;18.25;;
51852;SDS011;37894;53.172;6.598;2024-01-30T00:04:37;28.67;;;18.13;;
51852;SDS011;37894;53.172;6.598;2024-01-30T00:07:03;28.85;;;17.90;;
51852;SDS011;37894;53.172;6.598;2024-01-30T00:09:29;29.77;;;18.38;;
51852;SDS011;37894;53.172;6.598;2024-01-30T00:11:55;29.77;;;19.50;;
51852;SDS011;37894;53.172;6.598;2024-01-30T00:14:22;32.13;;;20.00;;
51852;SDS011;37894;53.172;6.598;2024-01-30T00:16:48;28.98;;;19.80;;
51852;SDS011;37894;53.172;6.598;2024-01-30T00:19:14;28.98;;;17.73;;
51852;SDS011;37894;53.172;6.598;2024-01-30T00:21:40;28.17;;;18.13;;
51852;SDS011;37894;53.172;6.598;2024-01-30T00:24:06;29.52;;;18.40;;
51852;SDS011;37894;53.172;6.598;2024-01-30T00:26:32;30.63;;;20.15;;
51852;SDS011;37894;53.172;6.598;2024-01-30T00:28:59;31.08;;;19.13;;
51852;SDS011;37894;53.172;6.598;2024-01-30T00:31:24;27.83;;;18.13;;
51852;SDS011;37894;53.172;6.598;2024-01-30T00:33:50;31.75;;;19.02;;
51852;SDS011;37894;53.172;6.598;2024-01-30T00:36:17;27.77;;;18.40;;
51852;SDS011;37894;53.172;6.598;2024-01-30T00:38:43;28.80;;;18.65;;
51852;SDS011;37894;53.172;6.598;2024-01-30T00:41:09;28.17;;;19.48;;
51852;SDS011;37894;53.172;6.598;2024-01-30T00:43:35;28.70;;;19.50;;
51852;SDS011;37894;53.172;6.598;2024-01-30T00:46:01;32.75;;;19.50;;
51852;SDS011;37894;53.172;6.598;2024-01-30T00:48:28;29.85;;;20.20;;
51852;SDS011;37894;53.172;6.598;2024-01-30T00:50:54;30.58;;;19.23;;
51852;SDS011;37894;53.172;6.598;2024-01-30T00:53:20;30.55;;;20.20;;
51852;SDS011;37894;53.172;6.598;2024-01-30T00:55:46;33.38;;;20.30;;
51852;SDS011;37894;53.172;6.598;2024-01-30T00:58:13;28.48;;;19.05;;
51852;SDS011;37894;53.172;6.598;2024-01-30T01:00:38;31.50;;;21.05;;
51852;SDS011;37894;53.172;6.598;2024-01-30T01:03:04;30.20;;;19.33;;
51852;SDS011;37894;53.172;6.598;2024-01-30T01:05:30;34.92;;;21.48;;
51852;SDS011;37894;53.172;6.598;2024-01-30T01:07:56;30.65;;;19.80;;
51852;SDS011;37894;53.172;6.598;2024-01-30T01:10:22;34.88;;;21.92;;
51852;SDS011;37894;53.172;6.598;2024-01-30T01:12:48;34.08;;;21.70;;
51852;SDS011;37894;53.172;6.598;2024-01-30T01:15:14;30.58;;;21.35;;
51852;SDS011;37894;53.172;6.598;2024-01-30T01:17:41;34.55;;;22.10;;
51852;SDS011;37894;53.172;6.598;2024-01-30T01:20:07;33.60;;;22.63;;
51852;SDS011;37894;53.172;6.598;2024-01-30T01:22:34;33.63;;;21.95;;
51852;SDS011;37894;53.172;6.598;2024-01-30T01:25:00;33.05;;;21.42;;
51852;SDS011;37894;53.172;6.598;2024-01-30T01:27:26;37.45;;;22.80;;
51852;SDS011;37894;53.172;6.598;2024-01-30T01:29:52;32.53;;;21.17;;
51852;SDS011;37894;53.172;6.598;2024-01-30T01:32:19;34.65;;;22.00;;
51852;SDS011;37894;53.172;6.598;2024-01-30T01:34:45;31.33;;;21.35;;
51852;SDS011;37894;53.172;6.598;2024-01-30T01:37:10;37.70;;;21.17;;
51852;SDS011;37894;53.172;6.598;2024-01-30T01:39:36;35.00;;;21.20;;
51852;SDS011;37894;53.172;6.598;2024-01-30T01:42:02;38.08;;;22.13;;
51852;SDS011;37894;53.172;6.598;2024-01-30T01:44:29;32.08;;;19.90;;
51852;SDS011;37894;53.172;6.598;2024-01-30T01:46:55;31.25;;;21.27;;
51852;SDS011;37894;53.172;6.598;2024-01-30T01:49:22;32.22;;;20.90;;
51852;SDS011;37894;53.172;6.598;2024-01-30T01:51:50;32.95;;;21.20;;
51852;SDS011;37894;53.172;6.598;2024-01-30T01:54:19;37.90;;;21.52;;
51852;SDS011;37894;53.172;6.598;2024-01-30T01:56:45;31.40;;;21.17;;
51852;SDS011;37894;53.172;6.598;2024-01-30T01:59:11;32.95;;;21.88;;
51852;SDS011;37894;53.172;6.598;2024-01-30T02:01:37;33.97;;;20.95;;
51852;SDS011;37894;53.172;6.598;2024-01-30T02:04:06;35.03;;;22.45;;
51852;SDS011;37894;53.172;6.598;2024-01-30T02:06:34;31.13;;;20.85;;
51852;SDS011;37894;53.172;6.598;2024-01-30T02:09:00;35.90;;;21.33;;
51852;SDS011;37894;53.172;6.598;2024-01-30T02:11:26;32.10;;;20.30;;
51852;SDS011;37894;53.172;6.598;2024-01-30T02:13:53;34.40;;;21.15;;
51852;SDS011;37894;53.172;6.598;2024-01-30T02:16:19;36.28;;;20.65;;
51852;SDS011;37894;53.172;6.598;2024-01-30T02:18:45;32.53;;;21.33;;
51852;SDS011;37894;53.172;6.598;2024-01-30T02:21:14;31.88;;;20.05;;
51852;SDS011;37894;53.172;6.598;2024-01-30T02:23:44;30.83;;;20.10;;
51852;SDS011;37894;53.172;6.598;2024-01-30T02:26:12;31.92;;;20.85;;
51852;SDS011;37894;53.172;6.598;2024-01-30T02:28:38;33.65;;;21.13;;
51852;SDS011;37894;53.172;6.598;2024-01-30T02:31:04;30.17;;;19.85;;
51852;SDS011;37894;53.172;6.598;2024-01-30T02:33:30;29.65;;;20.55;;
51852;SDS011;37894;53.172;6.598;2024-01-30T02:35:56;30.05;;;20.17;;
51852;SDS011;37894;53.172;6.598;2024-01-30T02:38:22;33.38;;;20.95;;
51852;SDS011;37894;53.172;6.598;2024-01-30T02:40:49;31.75;;;21.35;;
51852;SDS011;37894;53.172;6.598;2024-01-30T02:43:15;31.25;;;20.77;;
51852;SDS011;37894;53.172;6.598;2024-01-30T02:45:41;33.22;;;20.13;;
51852;SDS011;37894;53.172;6.598;2024-01-30T02:48:10;29.02;;;18.48;;
51852;SDS011;37894;53.172;6.598;2024-01-30T02:50:36;30.40;;;20.38;;
51852;SDS011;37894;53.172;6.598;2024-01-30T02:53:01;32.72;;;19.67;;
51852;SDS011;37894;53.172;6.598;2024-01-30T02:55:27;31.65;;;20.08;;
51852;SDS011;37894;53.172;6.598;2024-01-30T02:57:53;28.55;;;19.20;;
51852;SDS011;37894;53.172;6.598;2024-01-30T03:00:20;32.03;;;20.25;;
51852;SDS011;37894;53.172;6.598;2024-01-30T03:02:46;28.92;;;19.42;;
51852;SDS011;37894;53.172;6.598;2024-01-30T03:05:12;31.67;;;20.23;;
51852;SDS011;37894;53.172;6.598;2024-01-30T03:07:38;30.50;;;19.25;;
51852;SDS011;37894;53.172;6.598;2024-01-30T03:10:04;28.35;;;18.85;;
51852;SDS011;37894;53.172;6.598;2024-01-30T03:12:31;28.42;;;19.10;;
51852;SDS011;37894;53.172;6.598;2024-01-30T03:14:57;27.90;;;19.48;;
51852;SDS011;37894;53.172;6.598;2024-01-30T03:17:23;28.02;;;19.27;;
51852;SDS011;37894;53.172;6.598;2024-01-30T03:19:49;30.70;;;19.00;;
51852;SDS011;37894;53.172;6.598;2024-01-30T03:22:15;27.52;;;18.67;;
51852;SDS011;37894;53.172;6.598;2024-01-30T03:24:41;29.88;;;18.83;;
51852;SDS011;37894;53.172;6.598;2024-01-30T03:27:07;30.27;;;19.05;;
51852;SDS011;37894;53.172;6.598;2024-01-30T03:29:34;30.33;;;18.95;;
51852;SDS011;37894;53.172;6.598;2024-01-30T03:31:59;29.63;;;18.58;;
51852;SDS011;37894;53.172;6.598;2024-01-30T03:34:26;27.52;;;18.33;;
51852;SDS011;37894;53.172;6.598;2024-01-30T03:36:52;27.98;;;19.02;;
51852;SDS011;37894;53.172;6.598;2024-01-30T03:39:18;30.83;;;18.50;;
51852;SDS011;37894;53.172;6.598;2024-01-30T03:41:44;27.33;;;18.02;;
51852;SDS011;37894;53.172;6.598;2024-01-30T03:44:10;28.27;;;18.25;;
51852;SDS011;37894;53.172;6.598;2024-01-30T03:46:36;28.50;;;17.58;;
51852;SDS011;37894;53.172;6.598;2024-01-30T03:49:02;27.15;;;18.60;;
51852;SDS011;37894;53.172;6.598;2024-01-30T03:51:28;28.00;;;18.17;;
51852;SDS011;37894;53.172;6.598;2024-01-30T03:53:54;30.88;;;18.25;;
51852;SDS011;37894;53.172;6.598;2024-01-30T03:56:20;25.20;;;17.77;;
51852;SDS011;37894;53.172;6.598;2024-01-30T03:58:46;29.25;;;18.13;;
51852;SDS011;37894;53.172;6.598;2024-01-30T04:01:15;29.02;;;17.92;;
51852;SDS011;37894;53.172;6.598;2024-01-30T04:03:41;26.33;;;17.92;;
51852;SDS011;37894;53.172;6.598;2024-01-30T04:06:09;28.35;;;18.30;;
51852;SDS011;37894;53.172;6.598;2024-01-30T04:08:34;28.88;;;18.48;;
51852;SDS011;37894;53.172;6.598;2024-01-30T04:11:04;27.95;;;17.30;;
51852;SDS011;37894;53.172;6.598;2024-01-30T04:13:33;29.08;;;18.42;;
51852;SDS011;37894;53.172;6.598;2024-01-30T04:16:00;31.80;;;19.02;;
51852;SDS011;37894;53.172;6.598;2024-01-30T04:18:27;26.70;;;17.10;;
51852;SDS011;37894;53.172;6.598;2024-01-30T04:20:53;25.92;;;17.17;;
51852;SDS011;37894;53.172;6.598;2024-01-30T04:23:19;28.08;;;17.55;;
51852;SDS011;37894;53.172;6.598;2024-01-30T04:25:45;26.02;;;17.08;;
51852;SDS011;37894;53.172;6.598;2024-01-30T04:28:11;31.98;;;17.77;;
51852;SDS011;37894;53.172;6.598;2024-01-30T04:30:38;27.08;;;16.98;;
51852;SDS011;37894;53.172;6.598;2024-01-30T04:33:04;26.85;;;17.02;;
51852;SDS011;37894;53.172;6.598;2024-01-30T04:35:30;24.08;;;16.35;;
51852;SDS011;37894;53.172;6.598;2024-01-30T04:37:56;26.17;;;17.33;;
51852;SDS011;37894;53.172;6.598;2024-01-30T04:40:22;27.75;;;16.63;;
51852;SDS011;37894;53.172;6.598;2024-01-30T04:42:48;22.88;;;15.25;;
51852;SDS011;37894;53.172;6.598;2024-01-30T04:45:14;22.70;;;16.02;;
51852;SDS011;37894;53.172;6.598;2024-01-30T04:47:40;25.42;;;15.77;;
51852;SDS011;37894;53.172;6.598;2024-01-30T04:50:06;22.65;;;15.27;;
51852;SDS011;37894;53.172;6.598;2024-01-30T04:52:33;21.05;;;14.98;;
51852;SDS011;37894;53.172;6.598;2024-01-30T04:54:59;22.52;;;14.63;;
51852;SDS011;37894;53.172;6.598;2024-01-30T04:57:25;22.75;;;14.93;;
51852;SDS011;37894;53.172;6.598;2024-01-30T04:59:51;24.30;;;15.55;;
51852;SDS011;37894;53.172;6.598;2024-01-30T05:02:17;21.33;;;15.02;;
51852;SDS011;37894;53.172;6.598;2024-01-30T05:04:43;22.88;;;15.60;;
51852;SDS011;37894;53.172;6.598;2024-01-30T05:07:09;22.30;;;15.27;;
51852;SDS011;37894;53.172;6.598;2024-01-30T05:09:36;24.20;;;14.60;;
51852;SDS011;37894;53.172;6.598;2024-01-30T05:12:02;22.60;;;14.43;;
51852;SDS011;37894;53.172;6.598;2024-01-30T05:14:28;22.85;;;14.98;;
51852;SDS011;37894;53.172;6.598;2024-01-30T05:16:54;20.67;;;14.52;;
51852;SDS011;37894;53.172;6.598;2024-01-30T05:19:20;20.13;;;13.25;;
51852;SDS011;37894;53.172;6.598;2024-01-30T05:21:48;18.85;;;13.65;;
51852;SDS011;37894;53.172;6.598;2024-01-30T05:24:14;22.60;;;14.23;;
51852;SDS011;37894;53.172;6.598;2024-01-30T05:26:40;19.15;;;13.60;;
51852;SDS011;37894;53.172;6.598;2024-01-30T05:29:06;20.90;;;13.90;;
51852;SDS011;37894;53.172;6.598;2024-01-30T05:31:33;19.95;;;14.07;;
51852;SDS011;37894;53.172;6.598;2024-01-30T05:33:59;20.20;;;14.40;;
51852;SDS011;37894;53.172;6.598;2024-01-30T05:36:25;23.40;;;14.63;;
51852;SDS011;37894;53.172;6.598;2024-01-30T05:38:51;20.48;;;14.10;;
51852;SDS011;37894;53.172;6.598;2024-01-30T05:41:18;20.35;;;13.55;;
51852;SDS011;37894;53.172;6.598;2024-01-30T05:43:43;21.88;;;14.48;;
51852;SDS011;37894;53.172;6.598;2024-01-30T05:46:09;20.77;;;13.52;;
51852;SDS011;37894;53.172;6.598;2024-01-30T05:48:36;23.08;;;14.32;;
51852;SDS011;37894;53.172;6.598;2024-01-30T05:51:02;20.75;;;13.90;;
51852;SDS011;37894;53.172;6.598;2024-01-30T05:53:29;26.20;;;14.35;;
51852;SDS011;37894;53.172;6.598;2024-01-30T05:55:55;20.90;;;13.50;;
51852;SDS011;37894;53.172;6.598;2024-01-30T05:58:21;23.45;;;13.95;;
51852;SDS011;37894;53.172;6.598;2024-01-30T06:00:48;20.02;;;12.98;;
51852;SDS011;37894;53.172;6.598;2024-01-30T06:03:14;21.52;;;13.18;;
51852;SDS011;37894;53.172;6.598;2024-01-30T06:05:40;19.05;;;13.25;;
51852;SDS011;37894;53.172;6.598;2024-01-30T06:08:06;19.70;;;13.85;;
51852;SDS011;37894;53.172;6.598;2024-01-30T06:10:32;18.50;;;13.70;;
51852;SDS011;37894;53.172;6.598;2024-01-30T06:12:58;19.77;;;13.18;;
51852;SDS011;37894;53.172;6.598;2024-01-30T06:15:24;19.67;;;12.65;;
51852;SDS011;37894;53.172;6.598;2024-01-30T06:17:49;20.00;;;13.07;;
51852;SDS011;37894;53.172;6.598;2024-01-30T06:20:16;19.60;;;12.77;;
51852;SDS011;37894;53.172;6.598;2024-01-30T06:22:42;24.35;;;12.82;;
51852;SDS011;37894;53.172;6.598;2024-01-30T06:25:08;17.10;;;11.73;;
51852;SDS011;37894;53.172;6.598;2024-01-30T06:27:34;21.15;;;12.75;;
51852;SDS011;37894;53.172;6.598;2024-01-30T06:30:00;20.92;;;13.07;;
51852;SDS011;37894;53.172;6.598;2024-01-30T06:32:26;19.30;;;12.45;;
51852;SDS011;37894;53.172;6.598;2024-01-30T06:34:53;17.08;;;11.93;;
51852;SDS011;37894;53.172;6.598;2024-01-30T06:37:19;19.20;;;12.35;;
51852;SDS011;37894;53.172;6.598;2024-01-30T06:39:45;19.13;;;12.32;;
51852;SDS011;37894;53.172;6.598;2024-01-30T06:42:11;17.73;;;12.88;;
51852;SDS011;37894;53.172;6.598;2024-01-30T06:44:37;19.60;;;12.48;;
51852;SDS011;37894;53.172;6.598;2024-01-30T06:47:03;20.83;;;12.52;;
51852;SDS011;37894;53.172;6.598;2024-01-30T06:49:29;22.55;;;11.98;;
51852;SDS011;37894;53.172;6.598;2024-01-30T06:51:55;18.70;;;11.98;;
51852;SDS011;37894;53.172;6.598;2024-01-30T06:54:21;21.58;;;12.77;;
51852;SDS011;37894;53.172;6.598;2024-01-30T06:56:47;17.88;;;12.18;;
51852;SDS011;37894;53.172;6.598;2024-01-30T06:59:13;21.50;;;13.15;;
51852;SDS011;37894;53.172;6.598;2024-01-30T07:01:39;16.67;;;11.57;;
51852;SDS011;37894;53.172;6.598;2024-01-30T07:04:05;20.90;;;13.13;;
51852;SDS011;37894;53.172;6.598;2024-01-30T07:06:31;17.65;;;11.50;;
51852;SDS011;37894;53.172;6.598;2024-01-30T07:08:57;18.40;;;11.05;;
51852;SDS011;37894;53.172;6.598;2024-01-30T07:11:23;19.00;;;12.95;;
51852;SDS011;37894;53.172;6.598;2024-01-30T07:13:52;19.10;;;12.35;;
51852;SDS011;37894;53.172;6.598;2024-01-30T07:16:19;19.13;;;11.85;;
51852;SDS011;37894;53.172;6.598;2024-01-30T07:18:44;18.20;;;11.60;;
51852;SDS011;37894;53.172;6.598;2024-01-30T07:21:11;19.20;;;12.23;;
51852;SDS011;37894;53.172;6.598;2024-01-30T07:23:37;17.90;;;12.07;;
51852;SDS011;37894;53.172;6.598;2024-01-30T07:26:07;18.50;;;11.73;;
51852;SDS011;37894;53.172;6.598;2024-01-30T07:28:34;20.38;;;12.32;;
51852;SDS011;37894;53.172;6.598;2024-01-30T07:31:03;20.17;;;12.07;;
51852;SDS011;37894;53.172;6.598;2024-01-30T07:33:29;22.00;;;12.73;;
51852;SDS011;37894;53.172;6.598;2024-01-30T07:35:55;19.00;;;11.93;;
51852;SDS011;37894;53.172;6.598;2024-01-30T07:38:21;17.55;;;11.65;;
51852;SDS011;37894;53.172;6.598;2024-01-30T07:40:47;17.63;;;12.00;;
51852;SDS011;37894;53.172;6.598;2024-01-30T07:43:13;20.00;;;12.82;;
51852;SDS011;37894;53.172;6.598;2024-01-30T07:45:39;18.83;;;12.38;;
51852;SDS011;37894;53.172;6.598;2024-01-30T07:48:05;19.20;;;12.52;;
51852;SDS011;37894;53.172;6.598;2024-01-30T07:50:31;18.23;;;12.63;;
51852;SDS011;37894;53.172;6.598;2024-01-30T07:52:58;18.15;;;12.55;;
51852;SDS011;37894;53.172;6.598;2024-01-30T07:55:25;20.50;;;13.38;;
51852;SDS011;37894;53.172;6.598;2024-01-30T07:57:53;16.77;;;11.30;;
51852;SDS011;37894;53.172;6.598;2024-01-30T08:00:22;17.45;;;11.75;;
51852;SDS011;37894;53.172;6.598;2024-01-30T08:02:48;22.33;;;12.80;;
51852;SDS011;37894;53.172;6.598;2024-01-30T08:05:14;17.40;;;11.48;;
51852;SDS011;37894;53.172;6.598;2024-01-30T08:07:41;17.95;;;11.30;;
51852;SDS011;37894;53.172;6.598;2024-01-30T08:10:08;19.70;;;12.63;;
51852;SDS011;37894;53.172;6.598;2024-01-30T08:12:33;16.75;;;12.05;;
51852;SDS011;37894;53.172;6.598;2024-01-30T08:15:00;19.65;;;11.38;;
51852;SDS011;37894;53.172;6.598;2024-01-30T08:17:25;18.48;;;11.95;;
51852;SDS011;37894;53.172;6.598;2024-01-30T08:19:51;19.50;;;12.82;;
51852;SDS011;37894;53.172;6.598;2024-01-30T08:22:17;19.00;;;11.45;;
51852;SDS011;37894;53.172;6.598;2024-01-30T08:24:43;22.08;;;12.60;;
51852;SDS011;37894;53.172;6.598;2024-01-30T08:27:09;17.65;;;12.02;;
51852;SDS011;37894;53.172;6.598;2024-01-30T08:29:36;19.42;;;12.63;;
51852;SDS011;37894;53.172;6.598;2024-01-30T08:32:02;16.17;;;11.30;;
51852;SDS011;37894;53.172;6.598;2024-01-30T08:34:28;18.65;;;12.00;;
51852;SDS011;37894;53.172;6.598;2024-01-30T08:36:54;18.85;;;12.00;;
51852;SDS011;37894;53.172;6.598;2024-01-30T08:39:20;16.10;;;11.02;;
51852;SDS011;37894;53.172;6.598;2024-01-30T08:41:46;16.52;;;10.32;;
51852;SDS011;37894;53.172;6.598;2024-01-30T08:44:12;18.65;;;11.40;;
51852;SDS011;37894;53.172;6.598;2024-01-30T08:46:38;15.93;;;10.73;;
51852;SDS011;37894;53.172;6.598;2024-01-30T08:49:04;18.23;;;11.00;;
51852;SDS011;37894;53.172;6.598;2024-01-30T08:51:30;16.35;;;10.55;;
51852;SDS011;37894;53.172;6.598;2024-01-30T08:53:56;17.98;;;11.13;;
51852;SDS011;37894;53.172;6.598;2024-01-30T08:56:22;16.60;;;10.73;;
51852;SDS011;37894;53.172;6.598;2024-01-30T08:58:48;14.77;;;10.48;;
51852;SDS011;37894;53.172;6.598;2024-01-30T09:01:15;16.27;;;10.85;;
51852;SDS011;37894;53.172;6.598;2024-01-30T09:03:40;15.32;;;10.32;;
51852;SDS011;37894;53.172;6.598;2024-01-30T09:06:09;16.70;;;10.65;;
51852;SDS011;37894;53.172;6.598;2024-01-30T09:08:35;16.05;;;10.00;;
51852;SDS011;37894;53.172;6.598;2024-01-30T09:11:02;17.13;;;10.20;;
51852;SDS011;37894;53.172;6.598;2024-01-30T09:13:38;22.73;;;10.95;;
51852;SDS011;37894;53.172;6.598;2024-01-30T09:16:04;16.70;;;10.20;;
51852;SDS011;37894;53.172;6.598;2024-01-30T09:18:30;16.33;;;11.43;;
51852;SDS011;37894;53.172;6.598;2024-01-30T09:20:56;18.30;;;10.23;;
51852;SDS011;37894;53.172;6.598;2024-01-30T09:23:22;15.50;;;10.40;;
51852;SDS011;37894;53.172;6.598;2024-01-30T09:25:48;17.17;;;10.60;;
51852;SDS011;37894;53.172;6.598;2024-01-30T09:28:14;18.95;;;10.90;;
51852;SDS011;37894;53.172;6.598;2024-01-30T09:30:40;17.30;;;10.77;;
51852;SDS011;37894;53.172;6.598;2024-01-30T09:33:06;18.75;;;10.32;;
51852;SDS011;37894;53.172;6.598;2024-01-30T09:35:32;15.50;;;10.70;;
51852;SDS011;37894;53.172;6.598;2024-01-30T09:37:58;17.50;;;11.10;;
51852;SDS011;37894;53.172;6.598;2024-01-30T09:40:25;16.55;;;9.93;;
51852;SDS011;37894;53.172;6.598;2024-01-30T09:42:51;18.27;;;10.73;;
51852;SDS011;37894;53.172;6.598;2024-01-30T09:45:20;17.80;;;10.70;;
51852;SDS011;37894;53.172;6.598;2024-01-30T09:47:50;17.17;;;10.70;;
51852;SDS011;37894;53.172;6.598;2024-01-30T09:50:16;21.88;;;12.05;;
51852;SDS011;37894;53.172;6.598;2024-01-30T09:52:42;18.17;;;10.50;;
51852;SDS011;37894;53.172;6.598;2024-01-30T09:55:12;16.40;;;10.35;;
51852;SDS011;37894;53.172;6.598;2024-01-30T09:57:38;18.33;;;10.98;;
51852;SDS011;37894;53.172;6.598;2024-01-30T10:00:05;15.65;;;10.45;;
51852;SDS011;37894;53.172;6.598;2024-01-30T10:02:37;17.50;;;11.25;;
51852;SDS011;37894;53.172;6.598;2024-01-30T10:05:04;17.02;;;10.75;;
51852;SDS011;37894;53.172;6.598;2024-01-30T10:07:30;17.92;;;11.48;;
51852;SDS011;37894;53.172;6.598;2024-01-30T10:09:56;15.85;;;10.38;;
51852;SDS011;37894;53.172;6.598;2024-01-30T10:12:22;17.75;;;10.18;;
51852;SDS011;37894;53.172;6.598;2024-01-30T10:14:48;15.13;;;9.70;;
51852;SDS011;37894;53.172;6.598;2024-01-30T10:17:14;16.98;;;9.93;;
51852;SDS011;37894;53.172;6.598;2024-01-30T10:19:40;16.02;;;9.60;;
51852;SDS011;37894;53.172;6.598;2024-01-30T10:22:07;16.83;;;10.70;;
51852;SDS011;37894;53.172;6.598;2024-01-30T10:24:34;14.77;;;9.30;;
51852;SDS011;37894;53.172;6.598;2024-01-30T10:27:00;16.77;;;10.75;;
51852;SDS011;37894;53.172;6.598;2024-01-30T10:29:27;21.33;;;11.20;;
51852;SDS011;37894;53.172;6.598;2024-01-30T10:32:03;16.27;;;9.60;;
51852;SDS011;37894;53.172;6.598;2024-01-30T10:34:30;17.42;;;9.75;;
51852;SDS011;37894;53.172;6.598;2024-01-30T10:36:59;18.20;;;9.73;;
51852;SDS011;37894;53.172;6.598;2024-01-30T10:39:41;15.93;;;9.88;;
51852;SDS011;37894;53.172;6.598;2024-01-30T10:42:11;16.88;;;10.95;;
51852;SDS011;37894;53.172;6.598;2024-01-30T10:47:28;15.45;;;10.32;;
51852;SDS011;37894;53.172;6.598;2024-01-30T10:49:54;14.95;;;9.63;;
51852;SDS011;37894;53.172;6.598;2024-01-30T10:52:21;17.30;;;9.70;;
51852;SDS011;37894;53.172;6.598;2024-01-30T10:54:53;17.42;;;9.77;;
51852;SDS011;37894;53.172;6.598;2024-01-30T10:57:20;17.92;;;9.95;;
51852;SDS011;37894;53.172;6.598;2024-01-30T10:59:46;16.30;;;10.07;;
51852;SDS011;37894;53.172;6.598;2024-01-30T11:02:12;15.93;;;9.82;;
51852;SDS011;37894;53.172;6.598;2024-01-30T11:04:42;23.13;;;10.82;;
51852;SDS011;37894;53.172;6.598;2024-01-30T11:07:18;20.08;;;10.80;;
51852;SDS011;37894;53.172;6.598;2024-01-30T11:09:50;18.17;;;10.55;;
51852;SDS011;37894;53.172;6.598;2024-01-30T11:12:21;20.48;;;10.35;;
51852;SDS011;37894;53.172;6.598;2024-01-30T11:14:48;19.27;;;10.70;;
51852;SDS011;37894;53.172;6.598;2024-01-30T11:17:13;23.33;;;9.93;;
51852;SDS011;37894;53.172;6.598;2024-01-30T11:19:41;16.70;;;10.43;;
51852;SDS011;37894;53.172;6.598;2024-01-30T11:22:07;17.05;;;10.68;;
51852;SDS011;37894;53.172;6.598;2024-01-30T11:24:38;22.95;;;10.45;;
51852;SDS011;37894;53.172;6.598;2024-01-30T11:27:08;18.85;;;11.18;;
51852;SDS011;37894;53.172;6.598;2024-01-30T11:29:35;19.77;;;11.02;;
51852;SDS011;37894;53.172;6.598;2024-01-30T11:32:01;20.60;;;12.10;;
51852;SDS011;37894;53.172;6.598;2024-01-30T11:34:27;16.52;;;10.02;;
51852;SDS011;37894;53.172;6.598;2024-01-30T11:37:03;21.65;;;9.25;;
51852;SDS011;37894;53.172;6.598;2024-01-30T11:39:32;18.80;;;8.70;;
51852;SDS011;37894;53.172;6.598;2024-01-30T11:41:59;15.30;;;8.13;;
51852;SDS011;37894;53.172;6.598;2024-01-30T11:44:25;18.98;;;7.70;;
51852;SDS011;37894;53.172;6.598;2024-01-30T11:46:51;18.25;;;8.00;;
51852;SDS011;37894;53.172;6.598;2024-01-30T11:49:17;20.70;;;7.82;;
51852;SDS011;37894;53.172;6.598;2024-01-30T11:51:46;15.95;;;7.03;;
51852;SDS011;37894;53.172;6.598;2024-01-30T11:56:41;9.48;;;5.00;;
51852;SDS011;37894;53.172;6.598;2024-01-30T11:59:08;11.30;;;4.60;;
51852;SDS011;37894;53.172;6.598;2024-01-30T12:01:34;11.40;;;3.92;;
51852;SDS011;37894;53.172;6.598;2024-01-30T12:04:00;11.73;;;4.25;;
51852;SDS011;37894;53.172;6.598;2024-01-30T12:06:28;8.43;;;3.40;;
51852;SDS011;37894;53.172;6.598;2024-01-30T12:08:58;6.07;;;2.55;;
51852;SDS011;37894;53.172;6.598;2024-01-30T12:11:25;6.45;;;2.70;;
51852;SDS011;37894;53.172;6.598;2024-01-30T12:13:52;6.97;;;2.47;;
51852;SDS011;37894;53.172;6.598;2024-01-30T12:16:19;6.05;;;2.30;;
51852;SDS011;37894;53.172;6.598;2024-01-30T12:18:45;8.65;;;2.33;;
51852;SDS011;37894;53.172;6.598;2024-01-30T12:21:11;7.97;;;2.10;;
51852;SDS011;37894;53.172;6.598;2024-01-30T12:23:37;8.30;;;1.98;;
51852;SDS011;37894;53.172;6.598;2024-01-30T12:26:03;5.43;;;1.70;;
51852;SDS011;37894;53.172;6.598;2024-01-30T12:28:32;4.50;;;1.85;;
51852;SDS011;37894;53.172;6.598;2024-01-30T12:31:01;4.45;;;1.50;;
51852;SDS011;37894;53.172;6.598;2024-01-30T12:33:31;6.45;;;1.95;;
51852;SDS011;37894;53.172;6.598;2024-01-30T12:35:57;6.55;;;2.35;;
51852;SDS011;37894;53.172;6.598;2024-01-30T12:38:26;4.43;;;1.60;;
51852;SDS011;37894;53.172;6.598;2024-01-30T12:40:56;3.33;;;1.27;;
51852;SDS011;37894;53.172;6.598;2024-01-30T12:43:22;4.22;;;1.33;;
51852;SDS011;37894;53.172;6.598;2024-01-30T12:45:49;5.78;;;1.63;;
51852;SDS011;37894;53.172;6.598;2024-01-30T12:48:15;5.85;;;1.60;;
51852;SDS011;37894;53.172;6.598;2024-01-30T12:50:41;4.70;;;1.40;;
51852;SDS011;37894;53.172;6.598;2024-01-30T12:53:07;4.30;;;1.00;;
51852;SDS011;37894;53.172;6.598;2024-01-30T12:55:35;1.80;;;0.90;;
51852;SDS011;37894;53.172;6.598;2024-01-30T12:58:00;4.22;;;1.33;;
51852;SDS011;37894;53.172;6.598;2024-01-30T13:00:27;3.05;;;0.90;;
51852;SDS011;37894;53.172;6.598;2024-01-30T13:02:53;2.97;;;0.98;;
51852;SDS011;37894;53.172;6.598;2024-01-30T13:05:19;2.90;;;0.95;;
51852;SDS011;37894;53.172;6.598;2024-01-30T13:07:45;4.55;;;1.33;;
51852;SDS011;37894;53.172;6.598;2024-01-30T13:10:11;4.97;;;1.92;;
51852;SDS011;37894;53.172;6.598;2024-01-30T13:12:37;3.78;;;1.30;;
51852;SDS011;37894;53.172;6.598;2024-01-30T13:15:04;3.70;;;1.40;;
51852;SDS011;37894;53.172;6.598;2024-01-30T13:17:30;4.80;;;1.13;;
51852;SDS011;37894;53.172;6.598;2024-01-30T13:19:56;2.50;;;1.00;;
51852;SDS011;37894;53.172;6.598;2024-01-30T13:22:23;5.70;;;1.30;;
51852;SDS011;37894;53.172;6.598;2024-01-30T13:24:50;4.03;;;1.20;;
51852;SDS011;37894;53.172;6.598;2024-01-30T13:27:15;2.40;;;1.00;;
51852;SDS011;37894;53.172;6.598;2024-01-30T13:29:42;3.22;;;1.27;;
51852;SDS011;37894;53.172;6.598;2024-01-30T13:32:08;2.58;;;1.30;;
51852;SDS011;37894;53.172;6.598;2024-01-30T13:34:34;4.05;;;1.10;;
51852;SDS011;37894;53.172;6.598;2024-01-30T13:37:00;4.20;;;1.20;;
51852;SDS011;37894;53.172;6.598;2024-01-30T13:39:26;3.67;;;1.33;;
51852;SDS011;37894;53.172;6.598;2024-01-30T13:41:53;4.72;;;1.67;;
51852;SDS011;37894;53.172;6.598;2024-01-30T13:44:19;4.07;;;1.45;;
51852;SDS011;37894;53.172;6.598;2024-01-30T13:46:46;3.95;;;1.80;;
51852;SDS011;37894;53.172;6.598;2024-01-30T13:49:12;1.75;;;1.10;;
51852;SDS011;37894;53.172;6.598;2024-01-30T13:51:38;3.10;;;1.20;;
51852;SDS011;37894;53.172;6.598;2024-01-30T13:54:04;2.55;;;1.10;;
51852;SDS011;37894;53.172;6.598;2024-01-30T13:56:30;3.60;;;1.15;;
51852;SDS011;37894;53.172;6.598;2024-01-30T13:58:56;2.50;;;1.50;;
51852;SDS011;37894;53.172;6.598;2024-01-30T14:01:22;3.70;;;1.30;;
51852;SDS011;37894;53.172;6.598;2024-01-30T14:03:49;4.63;;;1.35;;
51852;SDS011;37894;53.172;6.598;2024-01-30T14:06:15;3.15;;;0.95;;
51852;SDS011;37894;53.172;6.598;2024-01-30T14:08:41;3.35;;;1.10;;
51852;SDS011;37894;53.172;6.598;2024-01-30T14:11:07;2.67;;;1.30;;
51852;SDS011;37894;53.172;6.598;2024-01-30T14:13:33;2.38;;;1.30;;
51852;SDS011;37894;53.172;6.598;2024-01-30T14:15:59;2.38;;;0.90;;
51852;SDS011;37894;53.172;6.598;2024-01-30T14:18:25;3.95;;;1.48;;
51852;SDS011;37894;53.172;6.598;2024-01-30T14:20:51;14.00;;;3.13;;
51852;SDS011;37894;53.172;6.598;2024-01-30T14:23:19;2.97;;;1.30;;
51852;SDS011;37894;53.172;6.598;2024-01-30T14:25:45;3.78;;;1.40;;
51852;SDS011;37894;53.172;6.598;2024-01-30T14:28:11;2.85;;;1.30;;